sensor_id;sensor_type;location;lat;lon;timestamp;temperature;humidity
10964;DHT22;5534;48.784;9.190;2022-10-31T00:00:21;15.10;99.90
10964;DHT22;5534;48.784;9.190;2022-10-31T00:02:47;15.00;99.90
10964;DHT22;5534;48.784;9.190;2022-10-31T00:05:13;15.10;99.90
10964;DHT22;5534;48.784;9.190;2022-10-31T00:07:38;14.90;99.90
10964;DHT22;5534;48.784;9.190;2022-10-31T00:10:05;15.00;99.90
10964;DHT22;5534;48.784;9.190;2022-10-31T00:12:32;15.10;99.90
10964;DHT22;5534;48.784;9.190;2022-10-31T00:14:57;15.10;99.90
10964;DHT22;5534;48.784;9.190;2022-10-31T00:17:23;15.00;99.90
10964;DHT22;5534;48.784;9.190;2022-10-31T00:19:49;14.80;99.90
10964;DHT22;5534;48.784;9.190;2022-10-31T00:22:15;14.60;99.90
10964;DHT22;5534;48.784;9.190;2022-10-31T00:24:40;14.90;99.90
10964;DHT22;5534;48.784;9.190;2022-10-31T00:27:06;14.80;99.90
10964;DHT22;5534;48.784;9.190;2022-10-31T00:29:32;15.00;99.90
10964;DHT22;5534;48.784;9.190;2022-10-31T00:31:59;15.10;99.90
10964;DHT22;5534;48.784;9.190;2022-10-31T00:34:25;14.80;99.90
10964;DHT22;5534;48.784;9.190;2022-10-31T00:36:50;14.70;99.90
10964;DHT22;5534;48.784;9.190;2022-10-31T00:39:16;14.90;99.90
10964;DHT22;5534;48.784;9.190;2022-10-31T00:41:42;15.10;99.90
10964;DHT22;5534;48.784;9.190;2022-10-31T00:44:07;15.20;99.90
10964;DHT22;5534;48.784;9.190;2022-10-31T00:46:33;14.80;99.90
10964;DHT22;5534;48.784;9.190;2022-10-31T00:48:59;15.00;99.90
10964;DHT22;5534;48.784;9.190;2022-10-31T00:51:24;15.20;99.90
10964;DHT22;5534;48.784;9.190;2022-10-31T00:53:50;14.90;99.90
10964;DHT22;5534;48.784;9.190;2022-10-31T00:56:16;14.80;99.90
10964;DHT22;5534;48.784;9.190;2022-10-31T00:58:42;14.50;99.90
10964;DHT22;5534;48.784;9.190;2022-10-31T01:01:07;14.60;99.90
10964;DHT22;5534;48.784;9.190;2022-10-31T01:03:33;15.00;99.90
10964;DHT22;5534;48.784;9.190;2022-10-31T01:06:08;15.10;99.90
10964;DHT22;5534;48.784;9.190;2022-10-31T01:08:36;14.80;99.90
10964;DHT22;5534;48.784;9.190;2022-10-31T01:13:30;14.70;99.90
10964;DHT22;5534;48.784;9.190;2022-10-31T01:15:57;14.70;99.90
10964;DHT22;5534;48.784;9.190;2022-10-31T01:18:24;14.70;99.90
10964;DHT22;5534;48.784;9.190;2022-10-31T01:21:09;14.90;99.90
10964;DHT22;5534;48.784;9.190;2022-10-31T01:23:36;15.00;99.90
10964;DHT22;5534;48.784;9.190;2022-10-31T01:26:17;15.10;99.90
10964;DHT22;5534;48.784;9.190;2022-10-31T01:28:49;15.00;99.90
10964;DHT22;5534;48.784;9.190;2022-10-31T01:31:17;14.80;99.90
10964;DHT22;5534;48.784;9.190;2022-10-31T01:33:43;15.00;99.90
10964;DHT22;5534;48.784;9.190;2022-10-31T01:36:13;15.10;99.90
10964;DHT22;5534;48.784;9.190;2022-10-31T01:38:40;15.10;99.90
10964;DHT22;5534;48.784;9.190;2022-10-31T01:41:05;15.00;99.90
10964;DHT22;5534;48.784;9.190;2022-10-31T01:43:59;15.00;99.90
10964;DHT22;5534;48.784;9.190;2022-10-31T01:46:38;14.60;99.90
10964;DHT22;5534;48.784;9.190;2022-10-31T01:49:11;14.90;99.90
10964;DHT22;5534;48.784;9.190;2022-10-31T01:51:42;15.10;99.90
10964;DHT22;5534;48.784;9.190;2022-10-31T01:54:15;15.10;99.90
10964;DHT22;5534;48.784;9.190;2022-10-31T01:56:44;15.10;99.90
10964;DHT22;5534;48.784;9.190;2022-10-31T01:59:13;15.00;99.90
10964;DHT22;5534;48.784;9.190;2022-10-31T02:01:40;14.90;99.90
10964;DHT22;5534;48.784;9.190;2022-10-31T02:04:06;14.90;99.90
10964;DHT22;5534;48.784;9.190;2022-10-31T02:06:40;14.80;99.90
10964;DHT22;5534;48.784;9.190;2022-10-31T02:09:06;14.80;99.90
10964;DHT22;5534;48.784;9.190;2022-10-31T02:11:34;15.00;99.90
10964;DHT22;5534;48.784;9.190;2022-10-31T02:14:02;14.70;99.90
10964;DHT22;5534;48.784;9.190;2022-10-31T02:16:28;14.80;99.90
10964;DHT22;5534;48.784;9.190;2022-10-31T02:18:54;14.80;99.90
10964;DHT22;5534;48.784;9.190;2022-10-31T02:21:53;14.90;99.90
10964;DHT22;5534;48.784;9.190;2022-10-31T02:24:34;14.70;99.90
10964;DHT22;5534;48.784;9.190;2022-10-31T02:30:11;14.80;99.90
10964;DHT22;5534;48.784;9.190;2022-10-31T02:35:55;15.00;99.90
10964;DHT22;5534;48.784;9.190;2022-10-31T02:47:01;14.60;99.90
10964;DHT22;5534;48.784;9.190;2022-10-31T02:49:39;14.80;99.90
10964;DHT22;5534;48.784;9.190;2022-10-31T02:52:25;14.30;99.90
10964;DHT22;5534;48.784;9.190;2022-10-31T02:54:52;14.10;99.90
10964;DHT22;5534;48.784;9.190;2022-10-31T02:57:30;14.40;99.90
10964;DHT22;5534;48.784;9.190;2022-10-31T03:00:05;14.50;99.90
10964;DHT22;5534;48.784;9.190;2022-10-31T03:08:36;14.40;99.90
10964;DHT22;5534;48.784;9.190;2022-10-31T03:11:08;14.60;99.90
10964;DHT22;5534;48.784;9.190;2022-10-31T03:16:41;14.40;99.90
10964;DHT22;5534;48.784;9.190;2022-10-31T03:19:26;14.60;99.90
10964;DHT22;5534;48.784;9.190;2022-10-31T03:22:43;14.40;99.90
10964;DHT22;5534;48.784;9.190;2022-10-31T03:24:45;14.60;99.90
10964;DHT22;5534;48.784;9.190;2022-10-31T03:27:14;14.70;99.90
10964;DHT22;5534;48.784;9.190;2022-10-31T03:29:42;14.70;99.90
10964;DHT22;5534;48.784;9.190;2022-10-31T03:32:13;14.70;99.90
10964;DHT22;5534;48.784;9.190;2022-10-31T03:34:41;14.80;99.90
10964;DHT22;5534;48.784;9.190;2022-10-31T03:37:10;14.70;99.90
10964;DHT22;5534;48.784;9.190;2022-10-31T03:39:39;14.80;99.90
10964;DHT22;5534;48.784;9.190;2022-10-31T03:42:09;14.70;99.90
10964;DHT22;5534;48.784;9.190;2022-10-31T03:44:38;14.20;99.90
10964;DHT22;5534;48.784;9.190;2022-10-31T03:47:06;14.20;99.90
10964;DHT22;5534;48.784;9.190;2022-10-31T03:49:33;14.30;99.90
10964;DHT22;5534;48.784;9.190;2022-10-31T03:57:23;14.60;99.90
10964;DHT22;5534;48.784;9.190;2022-10-31T03:59:48;14.30;99.90
10964;DHT22;5534;48.784;9.190;2022-10-31T04:02:20;14.20;99.90
10964;DHT22;5534;48.784;9.190;2022-10-31T04:04:48;13.80;99.90
10964;DHT22;5534;48.784;9.190;2022-10-31T04:07:15;14.10;99.90
10964;DHT22;5534;48.784;9.190;2022-10-31T04:09:44;14.00;99.90
10964;DHT22;5534;48.784;9.190;2022-10-31T04:12:13;14.20;99.90
10964;DHT22;5534;48.784;9.190;2022-10-31T04:14:41;14.20;99.90
10964;DHT22;5534;48.784;9.190;2022-10-31T04:17:10;14.10;99.90
10964;DHT22;5534;48.784;9.190;2022-10-31T04:19:37;14.10;99.90
10964;DHT22;5534;48.784;9.190;2022-10-31T04:22:03;13.80;99.90
10964;DHT22;5534;48.784;9.190;2022-10-31T04:24:29;14.00;99.90
10964;DHT22;5534;48.784;9.190;2022-10-31T04:26:54;14.00;99.90
10964;DHT22;5534;48.784;9.190;2022-10-31T04:29:20;14.10;99.90
10964;DHT22;5534;48.784;9.190;2022-10-31T04:31:46;14.20;99.90
10964;DHT22;5534;48.784;9.190;2022-10-31T04:34:12;14.00;99.90
10964;DHT22;5534;48.784;9.190;2022-10-31T04:36:37;14.00;99.90
10964;DHT22;5534;48.784;9.190;2022-10-31T04:39:03;14.30;99.90
10964;DHT22;5534;48.784;9.190;2022-10-31T04:41:29;14.40;99.90
10964;DHT22;5534;48.784;9.190;2022-10-31T04:43:55;14.10;99.90
10964;DHT22;5534;48.784;9.190;2022-10-31T04:46:20;14.20;99.90
10964;DHT22;5534;48.784;9.190;2022-10-31T04:48:46;13.90;99.90
10964;DHT22;5534;48.784;9.190;2022-10-31T04:51:12;14.20;99.90
10964;DHT22;5534;48.784;9.190;2022-10-31T04:53:38;14.30;99.90
10964;DHT22;5534;48.784;9.190;2022-10-31T04:56:04;14.40;99.90
10964;DHT22;5534;48.784;9.190;2022-10-31T04:58:31;14.40;99.90
10964;DHT22;5534;48.784;9.190;2022-10-31T05:00:56;14.30;99.90
10964;DHT22;5534;48.784;9.190;2022-10-31T05:03:23;14.00;99.90
10964;DHT22;5534;48.784;9.190;2022-10-31T05:05:49;14.00;99.90
10964;DHT22;5534;48.784;9.190;2022-10-31T05:08:14;14.10;99.90
10964;DHT22;5534;48.784;9.190;2022-10-31T05:10:40;14.10;99.90
10964;DHT22;5534;48.784;9.190;2022-10-31T05:13:07;13.90;99.90
10964;DHT22;5534;48.784;9.190;2022-10-31T05:15:33;13.50;99.90
10964;DHT22;5534;48.784;9.190;2022-10-31T05:17:59;13.60;99.90
10964;DHT22;5534;48.784;9.190;2022-10-31T05:20:27;13.60;99.90
10964;DHT22;5534;48.784;9.190;2022-10-31T05:22:55;13.80;99.90
10964;DHT22;5534;48.784;9.190;2022-10-31T05:25:24;13.70;99.90
10964;DHT22;5534;48.784;9.190;2022-10-31T05:27:54;13.90;99.90
10964;DHT22;5534;48.784;9.190;2022-10-31T05:30:22;14.10;99.90
10964;DHT22;5534;48.784;9.190;2022-10-31T05:32:49;14.00;99.90
10964;DHT22;5534;48.784;9.190;2022-10-31T05:35:20;13.80;99.90
10964;DHT22;5534;48.784;9.190;2022-10-31T05:37:46;13.90;99.90
10964;DHT22;5534;48.784;9.190;2022-10-31T05:40:14;13.90;99.90
10964;DHT22;5534;48.784;9.190;2022-10-31T05:42:40;14.10;99.90
10964;DHT22;5534;48.784;9.190;2022-10-31T05:45:08;13.90;99.90
10964;DHT22;5534;48.784;9.190;2022-10-31T05:47:34;13.30;99.90
10964;DHT22;5534;48.784;9.190;2022-10-31T05:50:00;13.20;99.90
10964;DHT22;5534;48.784;9.190;2022-10-31T05:52:26;13.50;99.90
10964;DHT22;5534;48.784;9.190;2022-10-31T05:54:51;13.50;99.90
10964;DHT22;5534;48.784;9.190;2022-10-31T05:57:17;13.60;99.90
10964;DHT22;5534;48.784;9.190;2022-10-31T05:59:43;13.80;99.90
10964;DHT22;5534;48.784;9.190;2022-10-31T06:02:08;13.90;99.90
10964;DHT22;5534;48.784;9.190;2022-10-31T06:04:34;14.00;99.90
10964;DHT22;5534;48.784;9.190;2022-10-31T06:07:00;14.10;99.90
10964;DHT22;5534;48.784;9.190;2022-10-31T06:09:26;13.70;99.90
10964;DHT22;5534;48.784;9.190;2022-10-31T06:11:52;13.70;99.90
10964;DHT22;5534;48.784;9.190;2022-10-31T06:14:17;13.70;99.90
10964;DHT22;5534;48.784;9.190;2022-10-31T06:16:43;13.60;99.90
10964;DHT22;5534;48.784;9.190;2022-10-31T06:19:09;13.80;99.90
10964;DHT22;5534;48.784;9.190;2022-10-31T06:21:35;14.00;99.90
10964;DHT22;5534;48.784;9.190;2022-10-31T06:24:00;13.90;99.90
10964;DHT22;5534;48.784;9.190;2022-10-31T06:26:26;13.80;99.90
10964;DHT22;5534;48.784;9.190;2022-10-31T06:28:52;13.90;99.90
10964;DHT22;5534;48.784;9.190;2022-10-31T06:31:18;14.20;99.90
10964;DHT22;5534;48.784;9.190;2022-10-31T06:33:44;14.00;99.90
10964;DHT22;5534;48.784;9.190;2022-10-31T06:36:10;13.90;99.90
10964;DHT22;5534;48.784;9.190;2022-10-31T06:38:36;14.00;99.90
10964;DHT22;5534;48.784;9.190;2022-10-31T06:41:03;14.10;99.90
10964;DHT22;5534;48.784;9.190;2022-10-31T06:43:29;14.00;99.90
10964;DHT22;5534;48.784;9.190;2022-10-31T06:45:55;14.10;99.90
10964;DHT22;5534;48.784;9.190;2022-10-31T06:48:21;14.10;99.90
10964;DHT22;5534;48.784;9.190;2022-10-31T06:50:46;14.30;99.90
10964;DHT22;5534;48.784;9.190;2022-10-31T06:53:12;14.20;99.90
10964;DHT22;5534;48.784;9.190;2022-10-31T06:55:40;14.30;99.90
10964;DHT22;5534;48.784;9.190;2022-10-31T06:58:07;14.20;99.90
10964;DHT22;5534;48.784;9.190;2022-10-31T07:00:34;14.20;99.90
10964;DHT22;5534;48.784;9.190;2022-10-31T07:03:02;14.30;99.90
10964;DHT22;5534;48.784;9.190;2022-10-31T07:05:29;14.10;99.90
10964;DHT22;5534;48.784;9.190;2022-10-31T07:07:57;14.10;99.90
10964;DHT22;5534;48.784;9.190;2022-10-31T07:10:24;14.20;99.90
10964;DHT22;5534;48.784;9.190;2022-10-31T07:12:58;14.30;99.90
10964;DHT22;5534;48.784;9.190;2022-10-31T07:15:25;14.30;99.90
10964;DHT22;5534;48.784;9.190;2022-10-31T07:17:51;14.30;99.90
10964;DHT22;5534;48.784;9.190;2022-10-31T07:20:17;14.30;99.90
10964;DHT22;5534;48.784;9.190;2022-10-31T07:22:43;14.30;99.90
10964;DHT22;5534;48.784;9.190;2022-10-31T07:25:10;14.30;99.90
10964;DHT22;5534;48.784;9.190;2022-10-31T07:27:40;14.30;99.90
10964;DHT22;5534;48.784;9.190;2022-10-31T07:30:07;14.30;99.90
10964;DHT22;5534;48.784;9.190;2022-10-31T07:32:48;14.20;99.90
10964;DHT22;5534;48.784;9.190;2022-10-31T07:35:17;14.20;99.90
10964;DHT22;5534;48.784;9.190;2022-10-31T07:37:43;14.20;99.90
10964;DHT22;5534;48.784;9.190;2022-10-31T07:40:09;14.10;99.90
10964;DHT22;5534;48.784;9.190;2022-10-31T07:42:36;14.30;99.90
10964;DHT22;5534;48.784;9.190;2022-10-31T07:45:03;14.40;99.90
10964;DHT22;5534;48.784;9.190;2022-10-31T07:47:29;14.40;99.90
10964;DHT22;5534;48.784;9.190;2022-10-31T07:49:55;14.50;99.90
10964;DHT22;5534;48.784;9.190;2022-10-31T07:52:20;14.60;99.90
10964;DHT22;5534;48.784;9.190;2022-10-31T07:54:46;14.60;99.90
10964;DHT22;5534;48.784;9.190;2022-10-31T07:57:12;14.40;99.90
10964;DHT22;5534;48.784;9.190;2022-10-31T07:59:38;14.40;99.90
10964;DHT22;5534;48.784;9.190;2022-10-31T08:02:05;14.40;99.90
10964;DHT22;5534;48.784;9.190;2022-10-31T08:04:34;14.50;99.90
10964;DHT22;5534;48.784;9.190;2022-10-31T08:07:00;14.50;99.90
10964;DHT22;5534;48.784;9.190;2022-10-31T08:09:25;14.50;99.90
10964;DHT22;5534;48.784;9.190;2022-10-31T08:11:52;14.60;99.90
10964;DHT22;5534;48.784;9.190;2022-10-31T08:14:18;14.60;99.90
10964;DHT22;5534;48.784;9.190;2022-10-31T08:16:44;14.50;99.90
10964;DHT22;5534;48.784;9.190;2022-10-31T08:19:09;14.70;99.90
10964;DHT22;5534;48.784;9.190;2022-10-31T08:21:35;14.60;99.90
10964;DHT22;5534;48.784;9.190;2022-10-31T08:24:01;14.70;99.90
10964;DHT22;5534;48.784;9.190;2022-10-31T08:26:27;14.80;99.90
10964;DHT22;5534;48.784;9.190;2022-10-31T08:28:52;14.70;99.90
10964;DHT22;5534;48.784;9.190;2022-10-31T08:31:20;14.80;99.90
10964;DHT22;5534;48.784;9.190;2022-10-31T08:33:46;14.80;99.90
10964;DHT22;5534;48.784;9.190;2022-10-31T08:36:12;14.90;99.90
10964;DHT22;5534;48.784;9.190;2022-10-31T08:38:37;14.90;99.90
10964;DHT22;5534;48.784;9.190;2022-10-31T08:41:03;14.90;99.90
10964;DHT22;5534;48.784;9.190;2022-10-31T08:43:29;14.90;99.90
10964;DHT22;5534;48.784;9.190;2022-10-31T08:45:55;14.80;99.90
10964;DHT22;5534;48.784;9.190;2022-10-31T08:48:22;14.90;99.90
10964;DHT22;5534;48.784;9.190;2022-10-31T08:50:48;14.90;99.90
10964;DHT22;5534;48.784;9.190;2022-10-31T08:53:16;14.90;99.90
10964;DHT22;5534;48.784;9.190;2022-10-31T08:55:43;15.00;99.90
10964;DHT22;5534;48.784;9.190;2022-10-31T08:58:15;15.10;99.90
10964;DHT22;5534;48.784;9.190;2022-10-31T09:00:42;15.10;99.90
10964;DHT22;5534;48.784;9.190;2022-10-31T09:03:11;15.20;99.90
10964;DHT22;5534;48.784;9.190;2022-10-31T09:05:37;15.20;99.90
10964;DHT22;5534;48.784;9.190;2022-10-31T09:08:05;15.10;99.90
10964;DHT22;5534;48.784;9.190;2022-10-31T09:10:32;15.20;99.90
10964;DHT22;5534;48.784;9.190;2022-10-31T09:13:02;15.10;99.90
10964;DHT22;5534;48.784;9.190;2022-10-31T09:15:32;15.20;99.90
10964;DHT22;5534;48.784;9.190;2022-10-31T09:17:58;15.30;99.90
10964;DHT22;5534;48.784;9.190;2022-10-31T09:20:24;15.20;99.90
10964;DHT22;5534;48.784;9.190;2022-10-31T09:23:10;15.40;99.90
10964;DHT22;5534;48.784;9.190;2022-10-31T09:25:36;15.40;99.90
10964;DHT22;5534;48.784;9.190;2022-10-31T09:28:04;15.40;99.90
10964;DHT22;5534;48.784;9.190;2022-10-31T09:30:32;15.50;99.90
10964;DHT22;5534;48.784;9.190;2022-10-31T09:33:05;15.50;99.90
10964;DHT22;5534;48.784;9.190;2022-10-31T09:35:31;15.50;99.90
10964;DHT22;5534;48.784;9.190;2022-10-31T09:38:01;15.50;99.90
10964;DHT22;5534;48.784;9.190;2022-10-31T09:51:40;15.50;99.90
10964;DHT22;5534;48.784;9.190;2022-10-31T09:54:32;15.60;99.90
10964;DHT22;5534;48.784;9.190;2022-10-31T09:57:00;15.60;99.90
10964;DHT22;5534;48.784;9.190;2022-10-31T09:59:39;15.60;99.90
10964;DHT22;5534;48.784;9.190;2022-10-31T10:02:23;15.60;99.90
10964;DHT22;5534;48.784;9.190;2022-10-31T10:05:00;15.60;99.90
10964;DHT22;5534;48.784;9.190;2022-10-31T10:10:11;15.90;99.90
10964;DHT22;5534;48.784;9.190;2022-10-31T10:18:58;15.80;99.90
10964;DHT22;5534;48.784;9.190;2022-10-31T10:21:47;15.90;99.90
10964;DHT22;5534;48.784;9.190;2022-10-31T10:27:22;16.00;99.90
10964;DHT22;5534;48.784;9.190;2022-10-31T10:30:01;16.00;99.90
10964;DHT22;5534;48.784;9.190;2022-10-31T10:32:29;16.20;99.90
10964;DHT22;5534;48.784;9.190;2022-10-31T10:35:19;16.10;99.90
10964;DHT22;5534;48.784;9.190;2022-10-31T10:37:48;16.20;99.90
10964;DHT22;5534;48.784;9.190;2022-10-31T10:40:24;16.20;99.90
10964;DHT22;5534;48.784;9.190;2022-10-31T10:57:30;16.40;99.90
10964;DHT22;5534;48.784;9.190;2022-10-31T11:00:00;16.40;99.90
10964;DHT22;5534;48.784;9.190;2022-10-31T11:02:31;16.40;99.90
10964;DHT22;5534;48.784;9.190;2022-10-31T11:04:58;16.40;99.90
10964;DHT22;5534;48.784;9.190;2022-10-31T11:07:25;16.50;99.90
10964;DHT22;5534;48.784;9.190;2022-10-31T11:10:01;16.50;99.90
10964;DHT22;5534;48.784;9.190;2022-10-31T11:12:33;16.50;99.90
10964;DHT22;5534;48.784;9.190;2022-10-31T11:15:05;16.60;99.90
10964;DHT22;5534;48.784;9.190;2022-10-31T11:17:39;16.70;99.90
10964;DHT22;5534;48.784;9.190;2022-10-31T11:20:30;16.60;99.90
10964;DHT22;5534;48.784;9.190;2022-10-31T11:23:10;16.70;99.90
10964;DHT22;5534;48.784;9.190;2022-10-31T11:25:48;16.60;99.90
10964;DHT22;5534;48.784;9.190;2022-10-31T11:28:14;16.80;99.90
10964;DHT22;5534;48.784;9.190;2022-10-31T11:30:48;16.90;99.90
10964;DHT22;5534;48.784;9.190;2022-10-31T11:33:37;17.20;99.90
10964;DHT22;5534;48.784;9.190;2022-10-31T11:38:48;17.10;99.90
10964;DHT22;5534;48.784;9.190;2022-10-31T11:41:15;17.30;99.90
10964;DHT22;5534;48.784;9.190;2022-10-31T11:43:48;17.40;99.90
10964;DHT22;5534;48.784;9.190;2022-10-31T11:46:39;17.40;99.90
10964;DHT22;5534;48.784;9.190;2022-10-31T11:49:05;17.40;99.90
10964;DHT22;5534;48.784;9.190;2022-10-31T11:51:37;17.40;99.90
10964;DHT22;5534;48.784;9.190;2022-10-31T11:54:03;17.40;99.90
10964;DHT22;5534;48.784;9.190;2022-10-31T11:56:40;17.40;99.90
10964;DHT22;5534;48.784;9.190;2022-10-31T11:59:21;17.40;99.90
10964;DHT22;5534;48.784;9.190;2022-10-31T12:01:49;17.40;99.90
10964;DHT22;5534;48.784;9.190;2022-10-31T12:04:16;17.50;99.90
10964;DHT22;5534;48.784;9.190;2022-10-31T12:06:46;17.50;99.90
10964;DHT22;5534;48.784;9.190;2022-10-31T12:12:01;17.50;99.90
10964;DHT22;5534;48.784;9.190;2022-10-31T12:14:57;17.60;99.90
10964;DHT22;5534;48.784;9.190;2022-10-31T12:18:00;17.60;99.90
10964;DHT22;5534;48.784;9.190;2022-10-31T12:20:54;17.60;99.90
10964;DHT22;5534;48.784;9.190;2022-10-31T12:23:46;17.70;99.90
10964;DHT22;5534;48.784;9.190;2022-10-31T12:31:50;17.90;99.90
10964;DHT22;5534;48.784;9.190;2022-10-31T12:45:25;17.90;99.90
10964;DHT22;5534;48.784;9.190;2022-10-31T12:50:52;17.80;99.90
10964;DHT22;5534;48.784;9.190;2022-10-31T12:56:19;17.80;99.90
10964;DHT22;5534;48.784;9.190;2022-10-31T12:59:07;18.00;99.90
10964;DHT22;5534;48.784;9.190;2022-10-31T13:01:56;17.90;99.90
10964;DHT22;5534;48.784;9.190;2022-10-31T13:04:39;17.80;99.90
10964;DHT22;5534;48.784;9.190;2022-10-31T13:07:12;17.80;99.90
10964;DHT22;5534;48.784;9.190;2022-10-31T13:10:01;17.80;99.90
10964;DHT22;5534;48.784;9.190;2022-10-31T13:12:29;17.80;99.90
10964;DHT22;5534;48.784;9.190;2022-10-31T13:14:59;17.90;99.90
10964;DHT22;5534;48.784;9.190;2022-10-31T13:17:48;17.80;99.90
10964;DHT22;5534;48.784;9.190;2022-10-31T13:20:31;17.70;99.90
10964;DHT22;5534;48.784;9.190;2022-10-31T13:23:30;17.80;99.90
10964;DHT22;5534;48.784;9.190;2022-10-31T13:25:59;17.70;99.90
10964;DHT22;5534;48.784;9.190;2022-10-31T13:28:40;17.80;99.90
10964;DHT22;5534;48.784;9.190;2022-10-31T13:31:08;17.80;99.90
10964;DHT22;5534;48.784;9.190;2022-10-31T13:33:43;17.70;99.90
10964;DHT22;5534;48.784;9.190;2022-10-31T13:36:39;17.90;99.90
10964;DHT22;5534;48.784;9.190;2022-10-31T13:44:23;18.00;99.90
10964;DHT22;5534;48.784;9.190;2022-10-31T13:46:52;18.10;99.90
10964;DHT22;5534;48.784;9.190;2022-10-31T13:54:50;18.20;99.90
10964;DHT22;5534;48.784;9.190;2022-10-31T13:59:59;18.30;99.90
10964;DHT22;5534;48.784;9.190;2022-10-31T14:02:28;18.40;99.90
10964;DHT22;5534;48.784;9.190;2022-10-31T14:07:47;18.50;99.90
10964;DHT22;5534;48.784;9.190;2022-10-31T14:15:32;18.40;99.90
10964;DHT22;5534;48.784;9.190;2022-10-31T14:18:03;18.20;99.90
10964;DHT22;5534;48.784;9.190;2022-10-31T14:20:34;18.10;99.90
10964;DHT22;5534;48.784;9.190;2022-10-31T14:26:21;18.10;99.90
10964;DHT22;5534;48.784;9.190;2022-10-31T14:28:57;18.00;99.90
10964;DHT22;5534;48.784;9.190;2022-10-31T14:34:15;17.90;99.90
10964;DHT22;5534;48.784;9.190;2022-10-31T14:36:59;17.90;99.90
10964;DHT22;5534;48.784;9.190;2022-10-31T14:42:22;18.00;99.90
10964;DHT22;5534;48.784;9.190;2022-10-31T14:50:41;17.80;99.90
10964;DHT22;5534;48.784;9.190;2022-10-31T14:53:18;17.70;99.90
10964;DHT22;5534;48.784;9.190;2022-10-31T14:55:48;17.50;99.90
10964;DHT22;5534;48.784;9.190;2022-10-31T14:58:22;17.50;99.90
10964;DHT22;5534;48.784;9.190;2022-10-31T15:00:50;17.60;99.90
10964;DHT22;5534;48.784;9.190;2022-10-31T15:03:36;17.40;99.90
10964;DHT22;5534;48.784;9.190;2022-10-31T15:06:14;17.40;99.90
10964;DHT22;5534;48.784;9.190;2022-10-31T15:08:49;17.30;99.90
10964;DHT22;5534;48.784;9.190;2022-10-31T15:11:26;17.30;99.90
10964;DHT22;5534;48.784;9.190;2022-10-31T15:13:57;17.30;99.90
10964;DHT22;5534;48.784;9.190;2022-10-31T15:16:32;17.30;99.90
10964;DHT22;5534;48.784;9.190;2022-10-31T15:19:04;17.30;99.90
10964;DHT22;5534;48.784;9.190;2022-10-31T15:21:30;17.30;99.90
10964;DHT22;5534;48.784;9.190;2022-10-31T15:23:59;17.20;99.90
10964;DHT22;5534;48.784;9.190;2022-10-31T15:26:40;17.20;99.90
10964;DHT22;5534;48.784;9.190;2022-10-31T15:29:12;17.20;99.90
10964;DHT22;5534;48.784;9.190;2022-10-31T15:31:38;17.10;99.90
10964;DHT22;5534;48.784;9.190;2022-10-31T15:34:16;17.00;99.90
10964;DHT22;5534;48.784;9.190;2022-10-31T15:36:48;16.90;99.90
10964;DHT22;5534;48.784;9.190;2022-10-31T15:39:14;16.70;99.90
10964;DHT22;5534;48.784;9.190;2022-10-31T15:41:58;16.80;99.90
10964;DHT22;5534;48.784;9.190;2022-10-31T15:44:33;16.70;99.90
10964;DHT22;5534;48.784;9.190;2022-10-31T15:47:13;16.60;99.90
10964;DHT22;5534;48.784;9.190;2022-10-31T15:49:46;16.60;99.90
10964;DHT22;5534;48.784;9.190;2022-10-31T15:55:23;16.80;99.90
10964;DHT22;5534;48.784;9.190;2022-10-31T15:57:52;16.60;99.90
10964;DHT22;5534;48.784;9.190;2022-10-31T16:02:48;16.40;99.90
10964;DHT22;5534;48.784;9.190;2022-10-31T16:05:16;16.40;99.90
10964;DHT22;5534;48.784;9.190;2022-10-31T16:07:49;16.40;99.90
10964;DHT22;5534;48.784;9.190;2022-10-31T16:10:25;16.40;99.90
10964;DHT22;5534;48.784;9.190;2022-10-31T16:12:52;16.40;99.90
10964;DHT22;5534;48.784;9.190;2022-10-31T16:15:20;16.40;99.90
10964;DHT22;5534;48.784;9.190;2022-10-31T16:17:50;16.50;99.90
10964;DHT22;5534;48.784;9.190;2022-10-31T16:20:26;16.60;99.90
10964;DHT22;5534;48.784;9.190;2022-10-31T16:22:53;16.30;99.90
10964;DHT22;5534;48.784;9.190;2022-10-31T16:25:26;16.40;99.90
10964;DHT22;5534;48.784;9.190;2022-10-31T16:27:55;16.30;99.90
10964;DHT22;5534;48.784;9.190;2022-10-31T16:30:41;16.20;99.90
10964;DHT22;5534;48.784;9.190;2022-10-31T16:33:35;16.20;99.90
10964;DHT22;5534;48.784;9.190;2022-10-31T16:38:54;16.20;99.90
10964;DHT22;5534;48.784;9.190;2022-10-31T16:41:20;16.20;99.90
10964;DHT22;5534;48.784;9.190;2022-10-31T16:43:46;16.30;99.90
10964;DHT22;5534;48.784;9.190;2022-10-31T16:46:14;16.20;99.90
10964;DHT22;5534;48.784;9.190;2022-10-31T16:48:40;16.10;99.90
10964;DHT22;5534;48.784;9.190;2022-10-31T16:51:09;15.90;99.90
10964;DHT22;5534;48.784;9.190;2022-10-31T16:53:35;15.80;99.90
10964;DHT22;5534;48.784;9.190;2022-10-31T16:56:03;15.80;99.90
10964;DHT22;5534;48.784;9.190;2022-10-31T16:58:31;16.00;99.90
10964;DHT22;5534;48.784;9.190;2022-10-31T17:00:59;16.10;99.90
10964;DHT22;5534;48.784;9.190;2022-10-31T17:03:26;16.20;99.90
10964;DHT22;5534;48.784;9.190;2022-10-31T17:05:52;15.80;99.90
10964;DHT22;5534;48.784;9.190;2022-10-31T17:08:20;15.60;99.90
10964;DHT22;5534;48.784;9.190;2022-10-31T17:10:47;15.70;99.90
10964;DHT22;5534;48.784;9.190;2022-10-31T17:13:22;15.80;99.90
10964;DHT22;5534;48.784;9.190;2022-10-31T17:15:52;15.80;99.90
10964;DHT22;5534;48.784;9.190;2022-10-31T17:18:19;15.90;99.90
10964;DHT22;5534;48.784;9.190;2022-10-31T17:20:46;15.90;99.90
10964;DHT22;5534;48.784;9.190;2022-10-31T17:23:13;15.80;99.90
10964;DHT22;5534;48.784;9.190;2022-10-31T17:25:41;15.70;99.90
10964;DHT22;5534;48.784;9.190;2022-10-31T17:28:11;15.60;99.90
10964;DHT22;5534;48.784;9.190;2022-10-31T17:30:37;15.80;99.90
10964;DHT22;5534;48.784;9.190;2022-10-31T17:33:03;16.00;99.90
10964;DHT22;5534;48.784;9.190;2022-10-31T17:35:29;16.10;99.90
10964;DHT22;5534;48.784;9.190;2022-10-31T17:37:55;16.20;99.90
10964;DHT22;5534;48.784;9.190;2022-10-31T17:40:21;16.00;99.90
10964;DHT22;5534;48.784;9.190;2022-10-31T17:42:52;16.00;99.90
10964;DHT22;5534;48.784;9.190;2022-10-31T17:45:20;16.10;99.90
10964;DHT22;5534;48.784;9.190;2022-10-31T17:47:50;16.20;99.90
10964;DHT22;5534;48.784;9.190;2022-10-31T17:50:18;16.30;99.90
10964;DHT22;5534;48.784;9.190;2022-10-31T17:52:45;16.10;99.90
10964;DHT22;5534;48.784;9.190;2022-10-31T17:55:10;16.10;99.90
10964;DHT22;5534;48.784;9.190;2022-10-31T17:57:36;16.10;99.90
10964;DHT22;5534;48.784;9.190;2022-10-31T18:00:05;16.10;99.90
10964;DHT22;5534;48.784;9.190;2022-10-31T18:02:32;16.30;99.90
10964;DHT22;5534;48.784;9.190;2022-10-31T18:04:58;16.20;99.90
10964;DHT22;5534;48.784;9.190;2022-10-31T18:07:27;16.20;99.90
10964;DHT22;5534;48.784;9.190;2022-10-31T18:09:52;16.20;99.90
10964;DHT22;5534;48.784;9.190;2022-10-31T18:12:18;16.00;99.90
10964;DHT22;5534;48.784;9.190;2022-10-31T18:14:44;16.00;99.90
10964;DHT22;5534;48.784;9.190;2022-10-31T18:17:10;15.60;99.90
10964;DHT22;5534;48.784;9.190;2022-10-31T18:19:36;15.40;99.90
10964;DHT22;5534;48.784;9.190;2022-10-31T18:22:02;15.50;99.90
10964;DHT22;5534;48.784;9.190;2022-10-31T18:24:28;15.80;99.90